Latest Weather Observations for Rocky Gully South

IDW60801

Issued at 1:32 pm WST Wednesday 27 May 2015 (issued every 30 minutes, with the page automatically refreshed every 10 minutes)

About weather observations | Map of weather stations | Latest weather observations for WA | Other Formats
Station Details ID: 009964 Name: ROCKY GULLY Lat: -34.57 Lon: 117.01 Height: 250.0 m
Data from the previous 72 hours. | See also: Recent months at Rocky Gully South
Date/Time
WST
Temp
°C
App
Temp
°C
Dew
Point
Rel
Hum
%
Delta-T
°C
Wind Press
QNH
hPa
Press
MSL
hPa
Rain
since 9 am
mm
Dir
 
Spd
km/h
Gust
km/h
Spd
kts
Gust
kts
27/01:30pm 14.5 11.6 6.3 58 4.0 WSW 11 19 6 10 - - 0.0
27/01:00pm 13.9 11.5 7.0 63 3.4 WSW 9 19 5 10 - - 0.0
27/12:30pm 14.0 11.0 6.1 59 3.8 WSW 11 22 6 12 - - 0.0
27/12:00pm 14.3 11.5 6.9 61 3.6 WSW 11 19 6 10 - - 0.0
27/11:30am 13.9 11.2 7.4 65 3.2 WSW 11 17 6 9 - - 0.0
27/11:00am 13.2 10.4 7.0 66 3.0 WSW 11 17 6 9 - - 0.0
27/10:30am 12.4 10.0 6.9 69 2.7 W 9 13 5 7 - - 0.0
27/10:00am 11.9 9.9 7.0 72 2.4 W 7 13 4 7 - - 0.0
27/09:30am 11.5 9.4 6.8 73 2.3 WNW 7 13 4 7 - - 0.0
27/09:00am 10.4 8.2 6.4 76 1.9 W 7 11 4 6 - - 1.2
27/08:30am 9.9 7.6 5.9 76 1.9 W 7 13 4 7 - - 1.2
27/08:00am 9.3 7.2 5.9 79 1.6 NW 6 9 3 5 - - 1.2
27/07:30am 9.0 6.7 5.6 79 1.6 NW 7 9 4 5 - - 1.2
27/07:00am 8.7 6.5 5.4 80 1.5 NW 6 9 3 5 - - 1.2
27/06:30am 8.7 6.4 5.6 81 1.4 NNW 7 11 4 6 - - 1.2
27/06:00am 8.4 6.3 5.7 83 1.2 NNW 6 7 3 4 - - 1.2
27/05:30am 8.1 5.8 5.9 86 1.0 NW 7 11 4 6 - - 1.2
27/05:00am 7.5 5.4 5.8 89 0.8 NW 6 7 3 4 - - 1.2
27/04:30am 7.2 5.1 5.7 90 0.7 W 6 7 3 4 - - 1.2
27/04:00am 6.6 4.4 5.1 90 0.7 NW 6 9 3 5 - - 1.2
27/03:30am 6.7 4.4 5.0 89 0.8 NNW 6 7 3 4 - - 1.2
27/03:00am 7.2 6.2 5.5 89 0.8 CALM 0 0 0 0 - - 1.2
27/02:30am 7.2 5.4 5.3 88 0.9 NW 4 7 2 4 - - 1.2
27/02:00am 7.3 6.3 5.4 88 0.9 CALM 0 0 0 0 - - 1.2
27/01:30am 7.7 5.6 6.0 89 0.8 NW 6 9 3 5 - - 1.2
27/01:00am 7.5 5.4 5.8 89 0.8 NW 6 7 3 4 - - 1.2
27/12:30am 8.1 6.5 6.2 88 0.9 N 4 7 2 4 - - 1.2
27/12:00am 8.4 6.5 6.7 89 0.8 NNW 6 7 3 4 - - 1.2
 
Date/Time
WST
Temp
°C
App
Temp
°C
Dew
Point
Rel
Hum
%
Delta-T
°C
Wind Press
QNH
hPa
Press
MSL
hPa
Rain
since 9 am
mm
Dir
 
Spd
km/h
Gust
km/h
Spd
kts
Gust
kts
26/11:30pm 8.3 6.8 6.6 89 0.8 N 4 6 2 3 - - 1.2
26/11:00pm 8.4 6.5 6.7 89 0.8 NNW 6 9 3 5 - - 1.2
26/10:30pm 8.2 6.3 6.7 90 0.7 NNW 6 7 3 4 - - 1.2
26/10:00pm 8.0 6.1 6.6 91 0.7 NNW 6 7 3 4 - - 1.2
26/09:30pm 7.9 6.0 6.5 91 0.7 NNW 6 7 3 4 - - 1.2
26/09:00pm 7.4 5.3 6.0 91 0.6 N 6 7 3 4 - - 1.2
26/08:30pm 7.1 5.0 5.7 91 0.6 N 6 9 3 5 - - 1.2
26/08:00pm 6.8 5.0 5.4 91 0.6 WNW 4 7 2 4 - - 1.2
26/07:30pm 6.8 4.6 5.3 90 0.7 NNW 6 7 3 4 - - 1.2
26/07:00pm 7.2 6.1 5.3 88 0.9 CALM 0 0 0 0 - - 1.2
26/06:30pm 8.0 7.0 5.8 86 1.0 CALM 0 0 0 0 - - 1.2
26/06:00pm 8.7 7.7 5.6 81 1.4 CALM 0 4 0 2 - - 1.2
26/05:30pm 10.0 8.4 6.2 77 1.8 SW 4 7 2 4 - - 1.2
26/05:00pm 11.0 8.9 6.6 74 2.1 SSW 7 11 4 6 - - 1.2
26/04:30pm 11.7 9.5 6.4 70 2.5 SW 7 13 4 7 - - 1.2
26/04:00pm 11.8 9.2 6.3 69 2.6 SW 9 17 5 9 - - 1.2
26/03:30pm 12.2 8.4 6.0 66 3.0 SSW 15 26 8 14 - - 1.2
26/03:00pm 11.8 8.9 6.7 71 2.5 SSW 11 20 6 11 - - 1.2
26/02:30pm 12.3 9.2 7.2 71 2.5 SSW 13 19 7 10 - - 1.2
26/02:00pm 12.4 9.5 8.3 76 2.1 SSW 13 24 7 13 - - 1.2
26/01:30pm 12.9 10.5 8.8 76 2.1 SSW 11 22 6 12 - - 1.2
26/01:00pm 11.7 9.6 8.4 80 1.6 S 9 22 5 12 - - 1.2
26/12:30pm 13.3 10.0 8.2 71 2.6 SW 15 24 8 13 - - 1.2
26/12:00pm 12.6 11.1 10.7 88 1.0 SSW 9 15 5 8 - - 1.2
26/11:30am 11.6 8.7 9.5 87 1.1 SSW 15 28 8 15 - - 1.2
26/11:00am 12.2 11.1 10.6 90 0.8 SW 7 11 4 6 - - 0.6
26/10:30am 12.1 11.0 10.7 91 0.7 SW 7 11 4 6 - - 0.4
26/10:00am 11.9 10.8 10.8 93 0.6 SW 7 13 4 7 - - 0.4
26/09:30am 11.8 10.3 10.7 93 0.6 SW 9 17 5 9 - - 0.2
26/09:00am 11.3 10.1 10.2 93 0.6 WSW 7 11 4 6 - - 0.8
26/08:30am 10.9 9.8 9.8 93 0.6 W 6 9 3 5 - - 0.4
26/08:00am 10.5 9.3 9.4 93 0.6 WNW 6 11 3 6 - - 0.2
26/07:30am 10.0 8.6 8.9 93 0.5 W 6 9 3 5 - - 0.2
26/07:00am 10.0 8.4 8.9 93 0.5 WNW 7 9 4 5 - - 0.2
26/06:30am 10.1 8.7 8.9 92 0.6 WNW 6 7 3 4 - - 0.2
26/06:00am 10.6 9.2 9.4 92 0.6 NW 7 11 4 6 - - 0.2
26/05:30am 10.8 9.4 9.6 92 0.6 WNW 7 11 4 6 - - 0.2
26/05:00am 10.7 8.9 9.5 92 0.6 WNW 9 15 5 8 - - 0.2
26/04:30am 10.5 9.2 9.1 91 0.7 NW 6 9 3 5 - - 0.2
26/04:00am 10.7 9.2 9.1 90 0.8 WNW 7 9 4 5 - - 0.0
26/03:30am 10.7 9.3 9.0 89 0.9 W 6 9 3 5 - - 0.0
26/03:00am 11.0 9.7 9.3 89 0.9 NW 6 11 3 6 - - 0.0
26/02:30am 11.4 9.2 9.5 88 1.0 NW 11 17 6 9 - - 0.0
26/02:00am 11.1 9.7 9.0 87 1.1 WNW 6 11 3 6 - - 0.0
26/01:30am 11.6 10.1 9.3 86 1.2 WNW 7 13 4 7 - - 0.0
26/01:00am 11.8 9.7 9.7 87 1.1 NNW 11 17 6 9 - - 0.0
26/12:30am 12.1 10.1 10.0 87 1.1 NW 11 17 6 9 - - 0.0
26/12:00am 12.0 10.0 10.1 88 1.0 NW 11 17 6 9 - - 0.0
 
Date/Time
WST
Temp
°C
App
Temp
°C
Dew
Point
Rel
Hum
%
Delta-T
°C
Wind Press
QNH
hPa
Press
MSL
hPa
Rain
since 9 am
mm
Dir
 
Spd
km/h
Gust
km/h
Spd
kts
Gust
kts
25/11:30pm 12.2 10.2 10.1 87 1.1 NNW 11 15 6 8 - - 0.0
25/11:00pm 12.7 10.9 10.8 88 1.0 NNW 11 17 6 9 - - 0.0
25/10:30pm 12.8 11.3 10.7 87 1.1 NW 9 15 5 8 - - 0.0
25/10:00pm 13.1 11.6 10.6 85 1.3 NW 9 17 5 9 - - 0.0
25/09:30pm 13.8 12.5 11.1 84 1.4 NW 9 17 5 9 - - 0.0
25/09:00pm 13.6 12.3 11.1 85 1.3 NW 9 15 5 8 - - 0.0
25/08:30pm 13.5 12.5 11.0 85 1.3 NNW 7 13 4 7 - - 0.0
25/08:00pm 13.5 12.5 10.9 84 1.4 NW 7 13 4 7 - - 0.0
25/07:30pm 13.7 12.6 10.5 81 1.7 NW 7 11 4 6 - - 0.0
25/07:00pm 14.6 13.1 10.4 76 2.2 W 9 17 5 9 - - 0.0
25/06:30pm 14.4 14.4 11.0 80 1.8 WNW 2 7 1 4 - - 0.0
25/06:00pm 14.6 13.8 11.0 79 1.9 WSW 6 9 3 5 - - 0.0
25/05:30pm 14.7 13.9 10.9 78 2.0 WSW 6 7 3 4 - - 0.0
25/05:00pm 15.3 14.4 10.5 73 2.6 SW 6 9 3 5 - - 0.0
25/04:30pm 16.2 16.4 10.5 69 3.1 CALM 0 7 0 4 - - 0.0
25/04:00pm 16.6 16.8 10.5 67 3.3 CALM 0 6 0 3 - - 0.0
25/03:30pm 17.0 16.8 10.6 66 3.5 W 2 7 1 4 - - 0.0
25/03:00pm 16.7 15.6 10.1 65 3.5 WNW 6 9 3 5 - - 0.0
25/02:30pm 16.8 15.1 9.7 63 3.8 WNW 9 17 5 9 - - 0.0
25/02:00pm 17.2 14.9 8.9 58 4.3 WNW 11 20 6 11 - - 0.0
25/01:30pm 18.1 15.0 8.9 55 4.8 WNW 15 24 8 13 - - 0.0
25/01:00pm 17.6 14.5 9.0 57 4.5 NNW 15 22 8 12 - - 0.0
25/12:30pm 17.6 15.1 9.8 60 4.2 NNW 13 19 7 10 - - 0.0
25/12:00pm 17.6 15.0 9.5 59 4.3 NNW 13 20 7 11 - - 0.0
25/11:30am 16.8 14.1 8.8 59 4.2 NW 13 22 7 12 - - 0.0
25/11:00am 16.2 13.5 8.9 62 3.8 NNW 13 20 7 11 - - 0.0
25/10:30am 15.4 12.9 8.4 63 3.6 NW 11 19 6 10 - - 0.0
25/10:00am 14.4 11.4 7.7 64 3.4 NNW 13 19 7 10 - - 0.0
25/09:30am 13.2 10.5 7.2 67 3.0 N 11 19 6 10 - - 0.0
25/09:00am 11.9 9.1 6.8 71 2.5 N 11 17 6 9 - - 0.0
25/08:30am 10.9 8.0 6.5 74 2.1 N 11 15 6 8 - - 0.0
25/08:00am 9.2 7.0 6.1 81 1.4 N 7 11 4 6 - - 0.0
25/07:30am 8.7 6.0 5.6 81 1.4 N 9 13 5 7 - - 0.0
25/07:00am 8.2 5.8 5.1 81 1.4 N 7 9 4 5 - - 0.0
25/06:30am 9.5 7.5 6.4 81 1.5 N 6 9 3 5 - - 0.0
25/06:00am 8.9 6.7 6.0 82 1.3 N 7 9 4 5 - - 0.0
25/05:30am 9.6 7.6 6.1 79 1.6 NNW 6 9 3 5 - - 0.0
25/05:00am 9.7 7.5 6.2 79 1.6 N 7 13 4 7 - - 0.0
25/04:30am 9.9 7.7 6.1 77 1.8 N 7 15 4 8 - - 0.0
25/04:00am 10.3 8.2 6.5 77 1.8 WNW 7 13 4 7 - - 0.0
25/03:30am 10.4 8.4 6.9 79 1.7 N 7 13 4 7 - - 0.0
25/03:00am 10.1 8.1 7.0 81 1.5 N 7 9 4 5 - - 0.0
25/02:30am 9.8 8.7 6.9 82 1.4 NW 2 9 1 5 - - 0.0
25/02:00am 10.1 8.1 7.0 81 1.5 N 7 13 4 7 - - 0.0
25/01:30am 9.8 8.0 7.1 83 1.3 N 6 7 3 4 - - 0.0
25/01:00am 9.7 9.0 6.8 82 1.4 CALM 0 4 0 2 - - 0.0
25/12:30am 10.0 9.3 7.1 82 1.4 CALM 0 4 0 2 - - 0.0
25/12:00am 10.1 8.1 7.2 82 1.4 N 7 9 4 5 - - 0.0
 
Date/Time
WST
Temp
°C
App
Temp
°C
Dew
Point
Rel
Hum
%
Delta-T
°C
Wind Press
QNH
hPa
Press
MSL
hPa
Rain
since 9 am
mm
Dir
 
Spd
km/h
Gust
km/h
Spd
kts
Gust
kts
24/11:30pm 10.3 8.3 7.2 81 1.5 N 7 11 4 6 - - 0.0
24/11:00pm 10.7 8.8 7.6 81 1.5 N 7 9 4 5 - - 0.0
24/10:30pm 11.0 10.0 7.5 79 1.7 NW 2 6 1 3 - - 0.0
24/10:00pm 11.7 11.3 8.2 79 1.7 CALM 0 6 0 3 - - 0.0
24/09:30pm 12.1 10.9 8.2 77 1.9 WNW 4 6 2 3 - - 0.0
24/09:00pm 12.4 10.8 8.1 75 2.1 NNW 6 9 3 5 - - 0.0
24/08:30pm 13.4 11.3 8.3 71 2.6 NNW 9 13 5 7 - - 0.0
24/08:00pm 12.9 11.9 9.0 77 2.0 NNW 4 7 2 4 - - 0.0
24/07:30pm 12.8 11.8 8.9 77 2.0 NW 4 7 2 4 - - 0.0
24/07:00pm 13.1 11.8 9.2 77 2.0 N 6 7 3 4 - - 0.0
24/06:30pm 13.2 12.3 9.3 77 2.0 NNW 4 7 2 4 - - 0.0
24/06:00pm 13.1 11.9 9.4 78 1.9 NNE 6 7 3 4 - - 0.0
24/05:30pm 13.9 13.4 9.5 75 2.3 N 2 7 1 4 - - 0.0
24/05:00pm 14.2 13.7 9.4 73 2.5 N 2 6 1 3 - - 0.0
24/04:30pm 14.6 14.1 9.4 71 2.7 N 2 6 1 3 - - 0.0
24/04:00pm 14.9 13.4 9.1 68 3.0 NNW 7 11 4 6 - - 0.0
24/03:30pm 15.2 13.8 8.9 66 3.3 NNW 6 9 3 5 - - 0.0
24/03:00pm 15.2 13.2 8.7 65 3.3 NNW 9 15 5 8 - - 0.0
24/02:30pm 15.5 14.0 9.0 65 3.4 N 7 11 4 6 - - 0.0
24/02:00pm 15.3 13.3 8.5 64 3.5 N 9 15 5 8 - - 0.0

Other Formats:

Comma delimited format used in spreadsheet applications
http://www.bom.gov.au/fwo/IDW60801/IDW60801.94631.axf

JavaScript Object Notation format (JSON) in row-major order
http://www.bom.gov.au/fwo/IDW60801/IDW60801.94631.json